Time,TemperatureF,DewpointF,PressureIn,WindDirection,WindDirectionDegrees,WindSpeedMPH,WindSpeedGustMPH,Humidity,HourlyPrecipIn,Conditions,Clouds,dailyrainin,SoftwareType,DateUTC
2013-01-08 00:00:00,20.9,18.7,30.40,East,92,0.0,0.0,91,0.00,,,0.03,Wunderground v.1.15,2013-01-08 05:00:00,
2013-01-08 00:09:00,20.7,18.5,30.40,East,92,0.0,0.0,91,0.00,,,0.03,Wunderground v.1.15,2013-01-08 05:09:00,
2013-01-08 00:14:00,20.6,18.4,30.40,East,91,0.0,0.0,91,0.00,,,0.03,Wunderground v.1.15,2013-01-08 05:14:00,
2013-01-08 00:19:00,20.5,18.3,30.40,East,91,0.0,0.0,91,0.00,,,0.03,Wunderground v.1.15,2013-01-08 05:19:00,
2013-01-08 00:24:00,20.5,18.3,30.40,East,91,0.0,0.0,91,0.00,,,0.03,Wunderground v.1.15,2013-01-08 05:24:00,
2013-01-08 00:29:00,20.6,18.4,30.40,East,91,0.0,0.0,91,0.00,,,0.03,Wunderground v.1.15,2013-01-08 05:29:00,
2013-01-08 00:34:00,20.7,18.7,30.40,East,91,0.0,0.0,92,0.00,,,0.03,Wunderground v.1.15,2013-01-08 05:34:00,
2013-01-08 00:44:00,20.9,18.9,30.40,East,92,0.0,0.0,92,0.00,,,0.03,Wunderground v.1.15,2013-01-08 05:44:00,
2013-01-08 00:49:00,20.9,18.9,30.40,East,92,0.0,0.0,92,0.00,,,0.03,Wunderground v.1.15,2013-01-08 05:49:00,
2013-01-08 00:54:00,20.8,18.8,30.40,East,92,0.0,0.0,92,0.00,,,0.03,Wunderground v.1.15,2013-01-08 05:54:00,
2013-01-08 01:04:00,20.6,18.6,30.40,East,92,0.0,0.0,92,0.00,,,0.03,Wunderground v.1.15,2013-01-08 06:04:00,
2013-01-08 01:14:00,20.6,18.4,30.40,East,92,0.0,0.0,91,0.00,,,0.03,Wunderground v.1.15,2013-01-08 06:14:00,
2013-01-08 01:19:00,20.6,18.6,30.40,East,92,0.0,0.0,92,0.00,,,0.03,Wunderground v.1.15,2013-01-08 06:19:00,
2013-01-08 01:24:00,20.6,18.4,30.40,East,92,0.0,0.0,91,0.00,,,0.03,Wunderground v.1.15,2013-01-08 06:24:00,
2013-01-08 01:34:00,20.9,18.9,30.41,East,92,0.0,0.0,92,0.00,,,0.03,Wunderground v.1.15,2013-01-08 06:34:00,
2013-01-08 01:39:00,21.3,19.3,30.41,East,91,0.0,0.0,92,0.00,,,0.03,Wunderground v.1.15,2013-01-08 06:39:00,
2013-01-08 01:49:00,21.7,19.7,30.41,East,92,0.0,0.0,92,0.00,,,0.03,Wunderground v.1.15,2013-01-08 06:49:00,
2013-01-08 01:54:00,21.7,19.7,30.40,East,92,0.0,0.0,92,0.00,,,0.03,Wunderground v.1.15,2013-01-08 06:54:00,
2013-01-08 01:59:00,21.8,19.8,30.41,East,92,0.0,0.0,92,0.00,,,0.03,Wunderground v.1.15,2013-01-08 06:59:00,
2013-01-08 02:04:00,22.1,20.1,30.40,East,92,0.0,0.0,92,0.00,,,0.03,Wunderground v.1.15,2013-01-08 07:04:00,
2013-01-08 02:09:00,23.3,21.6,30.40,East,92,0.0,0.0,93,0.00,,,0.03,Wunderground v.1.15,2013-01-08 07:09:00,
2013-01-08 02:19:00,26.0,24.5,30.40,East,91,0.0,0.0,94,0.00,,,0.03,Wunderground v.1.15,2013-01-08 07:19:00,
2013-01-08 02:24:00,27.7,26.2,30.40,East,90,0.0,0.0,94,0.00,,,0.03,Wunderground v.1.15,2013-01-08 07:24:00,
2013-01-08 02:29:00,28.0,26.5,30.40,East,90,0.0,0.0,94,0.00,,,0.03,Wunderground v.1.15,2013-01-08 07:29:00,
2013-01-08 02:34:00,28.9,27.4,30.40,East,90,0.0,0.0,94,0.00,,,0.03,Wunderground v.1.15,2013-01-08 07:34:00,
2013-01-08 02:39:00,28.7,27.2,30.40,East,90,0.0,0.0,94,0.00,,,0.03,Wunderground v.1.15,2013-01-08 07:39:00,
2013-01-08 02:44:00,28.5,27.0,30.40,East,90,0.0,0.0,94,0.00,,,0.03,Wunderground v.1.15,2013-01-08 07:44:00,
2013-01-08 02:53:00,27.8,26.0,30.39,East,90,0.0,0.0,93,0.00,,,0.00,Wunderground v.1.15,2013-01-08 07:53:00,
2013-01-08 02:58:00,27.2,25.4,30.39,East,90,0.0,0.0,93,0.00,,,0.00,Wunderground v.1.15,2013-01-08 07:58:00,
2013-01-08 03:04:00,26.7,24.7,30.39,East,90,0.0,0.0,92,0.00,,,0.00,Wunderground v.1.15,2013-01-08 08:04:00,
2013-01-08 03:09:00,26.1,24.1,30.39,East,90,0.0,0.0,92,0.00,,,0.00,Wunderground v.1.15,2013-01-08 08:09:00,
2013-01-08 03:14:00,25.6,23.6,30.39,East,90,0.0,0.0,92,0.00,,,0.00,Wunderground v.1.15,2013-01-08 08:14:00,
2013-01-08 03:23:00,25.5,23.8,30.38,East,90,0.0,0.0,93,0.00,,,0.00,Wunderground v.1.15,2013-01-08 08:23:00,
2013-01-08 03:28:00,26.0,24.3,30.38,East,90,0.0,0.0,93,0.00,,,0.00,Wunderground v.1.15,2013-01-08 08:28:00,
2013-01-08 03:34:00,26.9,25.1,30.38,East,90,0.0,0.0,93,0.00,,,0.00,Wunderground v.1.15,2013-01-08 08:34:00,
2013-01-08 03:39:00,27.6,25.8,30.38,East,90,0.0,0.0,93,0.00,,,0.00,Wunderground v.1.15,2013-01-08 08:39:00,
2013-01-08 03:48:00,27.8,26.0,30.38,East,90,0.0,0.0,93,0.00,,,0.00,Wunderground v.1.15,2013-01-08 08:48:00,
2013-01-08 03:54:00,27.3,25.5,30.38,East,90,0.0,0.0,93,0.00,,,0.00,Wunderground v.1.15,2013-01-08 08:54:00,
2013-01-08 04:03:00,26.4,24.4,30.38,East,90,0.0,0.0,92,0.00,,,0.00,Wunderground v.1.15,2013-01-08 09:03:00,
2013-01-08 04:08:00,26.1,24.1,30.38,East,90,0.0,0.0,92,0.00,,,0.00,Wunderground v.1.15,2013-01-08 09:08:00,
2013-01-08 04:13:00,25.9,23.9,30.38,East,90,0.0,0.0,92,0.00,,,0.00,Wunderground v.1.15,2013-01-08 09:13:00,
2013-01-08 04:18:00,25.6,23.6,30.38,East,90,0.0,0.0,92,0.00,,,0.00,Wunderground v.1.15,2013-01-08 09:18:00,
2013-01-08 04:23:00,25.4,23.4,30.38,East,90,0.0,0.0,92,0.00,,,0.00,Wunderground v.1.15,2013-01-08 09:23:00,
2013-01-08 04:33:00,24.9,22.9,30.38,East,90,0.0,0.0,92,0.00,,,0.00,Wunderground v.1.15,2013-01-08 09:33:00,
2013-01-08 04:39:00,24.6,22.6,30.38,East,90,0.0,0.0,92,0.00,,,0.00,Wunderground v.1.15,2013-01-08 09:39:00,
2013-01-08 04:44:00,24.4,22.4,30.38,East,90,0.0,0.0,92,0.00,,,0.00,Wunderground v.1.15,2013-01-08 09:44:00,
2013-01-08 04:49:00,24.1,22.1,30.38,East,90,0.0,0.0,92,0.00,,,0.00,Wunderground v.1.15,2013-01-08 09:49:00,
2013-01-08 04:54:00,23.8,21.8,30.38,East,90,0.0,0.0,92,0.00,,,0.00,Wunderground v.1.15,2013-01-08 09:54:00,
2013-01-08 04:59:00,23.5,21.5,30.38,East,90,0.0,0.0,92,0.00,,,0.00,Wunderground v.1.15,2013-01-08 09:59:00,
2013-01-08 05:09:00,23.7,22.0,30.39,East,90,0.0,0.0,93,0.00,,,0.00,Wunderground v.1.15,2013-01-08 10:09:00,
2013-01-08 05:14:00,23.8,22.1,30.39,East,90,0.0,0.0,93,0.00,,,0.00,Wunderground v.1.15,2013-01-08 10:14:00,
2013-01-08 05:19:00,23.7,22.0,30.39,East,90,0.0,0.0,93,0.00,,,0.00,Wunderground v.1.15,2013-01-08 10:19:00,
2013-01-08 05:24:00,23.8,22.1,30.39,East,90,0.0,0.0,93,0.00,,,0.00,Wunderground v.1.15,2013-01-08 10:24:00,
2013-01-08 05:29:00,23.8,22.1,30.39,East,90,0.0,0.0,93,0.00,,,0.00,Wunderground v.1.15,2013-01-08 10:29:00,
2013-01-08 05:39:00,23.8,22.1,30.39,East,90,0.0,0.0,93,0.00,,,0.00,Wunderground v.1.15,2013-01-08 10:39:00,
2013-01-08 05:49:00,24.2,22.5,30.40,East,90,0.0,0.0,93,0.00,,,0.00,Wunderground v.1.15,2013-01-08 10:49:00,
2013-01-08 05:54:00,24.2,22.5,30.40,East,90,0.0,0.0,93,0.00,,,0.00,Wunderground v.1.15,2013-01-08 10:54:00,
2013-01-08 05:59:00,24.0,22.3,30.40,East,90,0.0,0.0,93,0.00,,,0.00,Wunderground v.1.15,2013-01-08 10:59:00,
2013-01-08 06:09:00,24.3,22.6,30.41,East,90,0.0,0.0,93,0.00,,,0.00,Wunderground v.1.15,2013-01-08 11:09:00,
2013-01-08 06:14:00,25.5,24.0,30.41,East,90,0.0,0.0,94,0.00,,,0.00,Wunderground v.1.15,2013-01-08 11:14:00,
2013-01-08 06:24:00,26.9,25.4,30.40,East,90,0.0,0.0,94,0.00,,,0.00,Wunderground v.1.15,2013-01-08 11:24:00,
2013-01-08 06:29:00,27.2,25.7,30.40,East,90,0.0,0.0,94,0.00,,,0.00,Wunderground v.1.15,2013-01-08 11:29:00,
2013-01-08 06:34:00,27.3,25.8,30.40,East,90,0.0,0.0,94,0.00,,,0.00,Wunderground v.1.15,2013-01-08 11:34:00,
2013-01-08 06:39:00,27.0,25.2,30.40,East,90,0.0,0.0,93,0.00,,,0.00,Wunderground v.1.15,2013-01-08 11:39:00,
2013-01-08 06:44:00,26.8,25.0,30.41,East,90,0.0,0.0,93,0.00,,,0.00,Wunderground v.1.15,2013-01-08 11:44:00,
2013-01-08 06:54:00,26.2,24.5,30.42,East,90,0.0,0.0,93,0.00,,,0.00,Wunderground v.1.15,2013-01-08 11:54:00,
2013-01-08 07:04:00,26.0,24.3,30.42,East,90,0.0,0.0,93,0.00,,,0.00,Wunderground v.1.15,2013-01-08 12:04:00,
2013-01-08 07:09:00,26.5,24.8,30.42,East,90,0.0,0.0,93,0.00,,,0.00,Wunderground v.1.15,2013-01-08 12:09:00,
2013-01-08 07:14:00,29.4,27.9,30.42,East,90,0.0,0.0,94,0.00,,,0.00,Wunderground v.1.15,2013-01-08 12:14:00,
2013-01-08 07:24:00,32.5,31.0,30.42,East,90,0.0,0.0,94,0.00,,,0.00,Wunderground v.1.15,2013-01-08 12:24:00,
2013-01-08 07:29:00,33.0,31.5,30.43,East,90,0.0,0.0,94,0.00,,,0.00,Wunderground v.1.15,2013-01-08 12:29:00,
2013-01-08 07:34:00,33.3,31.8,30.43,East,90,0.0,0.0,94,0.00,,,0.00,Wunderground v.1.15,2013-01-08 12:34:00,
2013-01-08 07:44:00,33.9,31.8,30.43,East,90,0.0,0.0,92,0.00,,,0.00,Wunderground v.1.15,2013-01-08 12:44:00,
2013-01-08 07:49:00,34.2,32.1,30.44,East,90,0.0,0.0,92,0.00,,,0.00,Wunderground v.1.15,2013-01-08 12:49:00,
2013-01-08 07:54:00,34.3,31.9,30.44,East,90,0.0,0.0,91,0.00,,,0.00,Wunderground v.1.15,2013-01-08 12:54:00,
2013-01-08 07:59:00,34.7,32.3,30.44,East,90,0.0,0.0,91,0.00,,,0.00,Wunderground v.1.15,2013-01-08 12:59:00,
2013-01-08 08:09:00,35.6,32.7,30.44,East,88,0.0,0.0,89,0.00,,,0.00,Wunderground v.1.15,2013-01-08 13:09:00,
2013-01-08 08:18:00,37.0,33.5,30.44,East,84,0.0,0.0,87,0.00,,,0.00,Wunderground v.1.15,2013-01-08 13:18:00,
2013-01-08 08:24:00,37.6,33.8,30.44,ENE,78,1.0,1.0,86,0.00,,,0.00,Wunderground v.1.15,2013-01-08 13:24:00,
2013-01-08 08:33:00,38.7,34.3,30.44,NNE,17,1.0,4.0,84,0.00,,,0.00,Wunderground v.1.15,2013-01-08 13:33:00,
2013-01-08 08:38:00,39.3,34.3,30.44,North,11,2.0,2.0,82,0.00,,,0.00,Wunderground v.1.15,2013-01-08 13:38:00,
2013-01-08 08:48:00,40.3,34.9,30.44,North,9,1.0,1.0,81,0.00,,,0.00,Wunderground v.1.15,2013-01-08 13:48:00,
2013-01-08 08:53:00,40.6,34.9,30.44,North,5,1.0,1.0,80,0.00,,,0.00,Wunderground v.1.15,2013-01-08 13:53:00,
2013-01-08 08:58:00,41.2,35.2,30.44,North,360,1.0,3.0,79,0.00,,,0.00,Wunderground v.1.15,2013-01-08 13:58:00,
2013-01-08 09:03:00,41.6,35.2,30.45,North,351,2.0,3.0,78,0.00,,,0.00,Wunderground v.1.15,2013-01-08 14:03:00,
2013-01-08 09:13:00,42.4,35.7,30.45,NNW,344,4.0,6.0,77,0.00,,,0.00,Wunderground v.1.15,2013-01-08 14:13:00,
2013-01-08 09:18:00,42.8,36.1,30.45,NNW,345,5.0,5.0,77,0.00,,,0.00,Wunderground v.1.15,2013-01-08 14:18:00,
2013-01-08 09:28:00,43.4,35.7,30.45,NNE,13,7.0,7.0,74,0.00,,,0.00,Wunderground v.1.15,2013-01-08 14:28:00,
2013-01-08 09:33:00,43.8,36.0,30.45,NNW,329,7.0,7.0,74,0.00,,,0.00,Wunderground v.1.15,2013-01-08 14:33:00,
2013-01-08 09:39:00,44.1,36.3,30.45,NNW,348,6.0,8.0,74,0.00,,,0.00,Wunderground v.1.15,2013-01-08 14:39:00,
2013-01-08 09:44:00,44.3,36.2,30.44,NNW,344,7.0,8.0,73,0.00,,,0.00,Wunderground v.1.15,2013-01-08 14:44:00,
2013-01-08 09:49:00,44.6,36.8,30.45,North,355,7.0,10.0,74,0.00,,,0.01,Wunderground v.1.15,2013-01-08 14:49:00,
2013-01-08 09:54:00,44.7,36.6,30.44,NNW,340,6.0,10.0,73,0.16,,,0.02,Wunderground v.1.15,2013-01-08 14:54:00,
2013-01-08 09:59:00,44.9,36.4,30.44,NNW,331,7.0,10.0,72,0.07,,,0.02,Wunderground v.1.15,2013-01-08 14:59:00,
2013-01-08 10:09:00,45.3,36.1,30.43,North,350,7.0,10.0,70,0.00,,,0.02,Wunderground v.1.15,2013-01-08 15:09:00,
2013-01-08 10:14:00,45.4,35.8,30.43,North,5,8.0,10.0,69,0.00,,,0.03,Wunderground v.1.15,2013-01-08 15:14:00,
2013-01-08 10:19:00,45.5,35.5,30.44,North,350,9.0,9.0,68,0.00,,,0.03,Wunderground v.1.15,2013-01-08 15:19:00,
2013-01-08 10:29:00,45.9,35.2,30.43,NNE,13,8.0,8.0,66,0.78,,,0.06,Wunderground v.1.15,2013-01-08 15:29:00,
2013-01-08 10:34:00,45.9,35.2,30.43,NNE,18,9.0,9.0,66,0.10,,,0.06,Wunderground v.1.15,2013-01-08 15:34:00,
2013-01-08 10:44:00,46.1,34.6,30.42,NNE,30,8.0,10.0,64,0.04,,,0.06,Wunderground v.1.15,2013-01-08 15:44:00,
2013-01-08 10:49:00,46.1,34.2,30.42,North,360,9.0,9.0,63,0.00,,,0.07,Wunderground v.1.15,2013-01-08 15:49:00,
2013-01-08 10:54:00,46.0,34.1,30.42,NE,39,10.0,10.0,63,0.65,,,0.16,Wunderground v.1.15,2013-01-08 15:54:00,
2013-01-08 11:04:00,46.6,33.9,30.42,North,349,10.0,12.0,61,0.15,,,0.27,Wunderground v.1.15,2013-01-08 16:04:00,
2013-01-08 11:14:00,46.9,33.7,30.41,NNW,343,10.0,11.0,60,0.04,,,0.27,Wunderground v.1.15,2013-01-08 16:14:00,
2013-01-08 11:19:00,47.0,33.4,30.40,NNE,15,9.0,10.0,59,0.00,,,0.27,Wunderground v.1.15,2013-01-08 16:19:00,
2013-01-08 11:24:00,47.1,33.5,30.40,North,11,9.0,13.0,59,0.24,,,0.33,Wunderground v.1.15,2013-01-08 16:24:00,
2013-01-08 11:34:00,47.3,33.7,30.40,NE,38,10.0,12.0,59,0.39,,,0.49,Wunderground v.1.15,2013-01-08 16:34:00,
2013-01-08 11:39:00,47.6,33.5,30.39,North,10,9.0,9.0,58,0.14,,,0.50,Wunderground v.1.15,2013-01-08 16:39:00,
2013-01-08 11:44:00,47.6,33.5,30.39,NNE,25,9.0,9.0,58,0.42,,,0.55,Wunderground v.1.15,2013-01-08 16:44:00,
2013-01-08 11:49:00,47.8,33.3,30.39,NNW,346,9.0,12.0,57,0.10,,,0.58,Wunderground v.1.15,2013-01-08 16:49:00,
2013-01-08 11:59:00,47.8,32.9,30.38,NNE,25,10.0,10.0,56,0.40,,,0.73,Wunderground v.1.15,2013-01-08 16:59:00,
2013-01-08 12:09:00,48.1,33.1,30.37,North,360,10.0,10.0,56,0.09,,,0.87,Wunderground v.1.15,2013-01-08 17:09:00,
2013-01-08 12:14:00,47.9,32.9,30.36,NW,323,10.0,19.0,56,0.16,,,0.90,Wunderground v.1.15,2013-01-08 17:14:00,
2013-01-08 12:23:00,48.4,33.4,30.36,NNW,346,9.0,19.0,56,0.08,,,0.91,Wunderground v.1.15,2013-01-08 17:23:00,
2013-01-08 12:28:00,48.7,33.2,30.36,NNE,22,8.0,19.0,55,0.05,,,0.91,Wunderground v.1.15,2013-01-08 17:28:00,
2013-01-08 12:34:00,48.7,33.2,30.35,North,360,7.0,19.0,55,0.00,,,0.91,Wunderground v.1.15,2013-01-08 17:34:00,
2013-01-08 12:39:00,48.7,32.8,30.35,North,355,7.0,19.0,54,0.00,,,0.91,Wunderground v.1.15,2013-01-08 17:39:00,
2013-01-08 12:48:00,49.5,33.5,30.35,NNE,32,6.0,19.0,54,0.08,,,0.93,Wunderground v.1.15,2013-01-08 17:48:00,
2013-01-08 12:54:00,49.4,33.4,30.36,North,355,7.0,19.0,54,0.06,,,0.93,Wunderground v.1.15,2013-01-08 17:54:00,
2013-01-08 13:03:00,49.2,33.3,30.36,North,11,8.0,19.0,54,0.00,,,0.93,Wunderground v.1.15,2013-01-08 18:03:00,
2013-01-08 13:09:00,49.1,33.2,30.36,North,355,9.0,9.0,54,0.34,,,0.94,Wunderground v.1.15,2013-01-08 18:09:00,
2013-01-08 13:18:00,49.3,33.8,30.35,NE,35,9.0,19.0,55,0.14,,,1.03,Wunderground v.1.15,2013-01-08 18:18:00,
2013-01-08 13:23:00,49.3,33.8,30.35,NE,35,8.0,19.0,55,0.14,,,1.03,Wunderground v.1.15,2013-01-08 18:23:00,
2013-01-08 13:28:00,-999.9,-99.9,30.35,North,32767,-999.0,19.0,255,-99.99,,,1.03,Wunderground v.1.15,2013-01-08 18:28:00,
2013-01-08 13:35:00,-999.9,-99.9,30.35,North,32767,-999.0,19.0,255,-99.99,,,1.03,Wunderground v.1.15,2013-01-08 18:35:00,
2013-01-08 13:44:00,-999.9,-99.9,30.35,North,32767,-999.0,19.0,255,-99.99,,,1.03,Wunderground v.1.15,2013-01-08 18:44:00,
2013-01-08 13:49:00,-999.9,-99.9,30.35,North,32767,-999.0,19.0,255,-99.99,,,1.03,Wunderground v.1.15,2013-01-08 18:49:00,
2013-01-08 13:59:00,-999.9,-99.9,30.35,North,32767,-999.0,19.0,255,-99.99,,,1.03,Wunderground v.1.15,2013-01-08 18:59:00,
2013-01-08 14:04:00,-999.9,-99.9,30.35,North,32767,-999.0,19.0,255,-99.99,,,1.03,Wunderground v.1.15,2013-01-08 19:04:00,
2013-01-08 14:09:00,-999.9,-99.9,30.35,North,32767,-999.0,19.0,255,-99.99,,,1.03,Wunderground v.1.15,2013-01-08 19:09:00,
2013-01-08 14:14:00,-999.9,-99.9,30.35,North,32767,-999.0,19.0,255,-99.99,,,1.03,Wunderground v.1.15,2013-01-08 19:14:00,
2013-01-08 14:24:00,-999.9,-99.9,30.35,North,32767,-999.0,19.0,255,-99.99,,,1.03,Wunderground v.1.15,2013-01-08 19:24:00,
2013-01-08 14:29:00,-999.9,-99.9,30.35,North,32767,-999.0,19.0,255,-99.99,,,1.03,Wunderground v.1.15,2013-01-08 19:29:00,
2013-01-08 14:39:00,-999.9,-99.9,30.36,North,32767,-999.0,19.0,255,-99.99,,,1.03,Wunderground v.1.15,2013-01-08 19:39:00,
2013-01-08 14:49:00,-999.9,-99.9,30.36,North,32767,-999.0,19.0,255,-99.99,,,1.03,Wunderground v.1.15,2013-01-08 19:49:00,
2013-01-08 14:54:00,-999.9,-99.9,30.36,North,32767,-999.0,19.0,255,-99.99,,,1.03,Wunderground v.1.15,2013-01-08 19:54:00,
2013-01-08 14:59:00,-999.9,-99.9,30.36,North,32767,-999.0,19.0,255,-99.99,,,1.03,Wunderground v.1.15,2013-01-08 19:59:00,
2013-01-08 15:04:00,-999.9,-99.9,30.35,North,32767,-999.0,19.0,255,-99.99,,,1.03,Wunderground v.1.15,2013-01-08 20:04:00,
2013-01-08 15:14:00,48.7,34.6,30.36,North,11,4.0,19.0,58,0.04,,,1.03,Wunderground v.1.15,2013-01-08 20:14:00,
2013-01-08 15:19:00,48.7,34.6,30.35,North,11,4.0,19.0,58,0.04,,,1.03,Wunderground v.1.15,2013-01-08 20:19:00,
2013-01-08 15:24:00,-999.9,-99.9,30.35,North,32767,-999.0,19.0,255,-99.99,,,1.03,Wunderground v.1.15,2013-01-08 20:24:00,
2013-01-08 15:29:00,-999.9,-99.9,30.35,North,32767,-999.0,19.0,255,-99.99,,,1.03,Wunderground v.1.15,2013-01-08 20:29:00,
2013-01-08 15:39:00,47.6,35.2,30.35,NNW,338,7.0,19.0,62,0.00,,,1.03,Wunderground v.1.15,2013-01-08 20:39:00,
2013-01-08 15:44:00,47.4,35.4,30.35,NNW,327,6.0,19.0,63,0.00,,,1.03,Wunderground v.1.15,2013-01-08 20:44:00,
2013-01-08 15:49:00,47.4,35.4,30.35,NNW,327,6.0,19.0,63,0.00,,,1.03,Wunderground v.1.15,2013-01-08 20:49:00,
2013-01-08 15:54:00,-999.9,-99.9,30.35,North,32767,-999.0,19.0,255,-99.99,,,1.03,Wunderground v.1.15,2013-01-08 20:54:00,
2013-01-08 16:04:00,-999.9,-99.9,30.35,North,32767,-999.0,19.0,255,-99.99,,,1.03,Wunderground v.1.15,2013-01-08 21:04:00,
2013-01-08 16:09:00,46.0,34.5,30.36,NNW,327,6.0,19.0,64,0.11,,,1.13,Wunderground v.1.15,2013-01-08 21:09:00,
2013-01-08 16:14:00,45.7,34.6,30.35,NNW,337,5.0,19.0,65,0.08,,,1.13,Wunderground v.1.15,2013-01-08 21:14:00,
2013-01-08 16:24:00,45.1,34.8,30.35,NW,317,6.0,7.0,67,0.00,,,1.13,Wunderground v.1.15,2013-01-08 21:24:00,
2013-01-08 16:29:00,44.8,34.9,30.35,NW,317,5.0,19.0,68,0.00,,,1.14,Wunderground v.1.15,2013-01-08 21:29:00,
2013-01-08 16:34:00,44.7,35.1,30.35,NNW,328,6.0,19.0,69,0.08,,,1.15,Wunderground v.1.15,2013-01-08 21:34:00,
2013-01-08 16:39:00,44.3,34.8,30.35,NNW,327,3.0,3.0,69,0.07,,,1.15,Wunderground v.1.15,2013-01-08 21:39:00,
2013-01-08 16:44:00,44.1,35.6,30.35,NNW,336,1.0,19.0,72,0.04,,,1.15,Wunderground v.1.15,2013-01-08 21:44:00,
2013-01-08 16:49:00,43.6,35.9,30.35,NNW,333,1.0,1.0,74,0.00,,,1.15,Wunderground v.1.15,2013-01-08 21:49:00,
2013-01-08 16:58:00,43.6,35.9,30.35,NNW,332,0.0,19.0,74,0.00,,,1.15,Wunderground v.1.15,2013-01-08 21:58:00,
2013-01-08 17:04:00,-999.9,-99.9,30.35,North,32767,-999.0,19.0,255,-99.99,,,1.15,Wunderground v.1.15,2013-01-08 22:04:00,
2013-01-08 17:09:00,-999.9,-99.9,30.36,North,32767,-999.0,19.0,255,-99.99,,,1.15,Wunderground v.1.15,2013-01-08 22:09:00,
2013-01-08 17:14:00,-999.9,-99.9,30.36,North,32767,-999.0,19.0,255,-99.99,,,1.15,Wunderground v.1.15,2013-01-08 22:14:00,
2013-01-08 17:19:00,-999.9,-99.9,30.36,North,32767,-999.0,19.0,255,-99.99,,,1.15,Wunderground v.1.15,2013-01-08 22:19:00,
2013-01-08 17:28:00,-999.9,-99.9,30.36,North,32767,-999.0,19.0,255,-99.99,,,1.15,Wunderground v.1.15,2013-01-08 22:28:00,
2013-01-08 17:39:00,-999.9,-99.9,30.36,North,32767,-999.0,19.0,255,-99.99,,,1.15,Wunderground v.1.15,2013-01-08 22:39:00,
2013-01-08 17:44:00,-999.9,-99.9,30.36,North,32767,-999.0,19.0,255,-99.99,,,1.15,Wunderground v.1.15,2013-01-08 22:44:00,
2013-01-08 17:53:00,-999.9,-99.9,30.36,North,32767,-999.0,19.0,255,-99.99,,,1.15,Wunderground v.1.15,2013-01-08 22:53:00,
2013-01-08 17:59:00,-999.9,-99.9,30.37,North,32767,-999.0,0.0,255,-99.99,,,1.15,Wunderground v.1.15,2013-01-08 22:59:00,
2013-01-08 18:08:00,-999.9,-99.9,30.37,North,32767,-999.0,0.0,255,-99.99,,,1.15,Wunderground v.1.15,2013-01-08 23:08:00,
2013-01-08 18:13:00,-999.9,-99.9,30.37,North,32767,-999.0,0.0,255,-99.99,,,1.15,Wunderground v.1.15,2013-01-08 23:13:00,
2013-01-08 18:18:00,-999.9,-99.9,30.37,North,32767,-999.0,0.0,255,-99.99,,,1.15,Wunderground v.1.15,2013-01-08 23:18:00,
2013-01-08 18:23:00,-999.9,-99.9,30.37,North,32767,-999.0,0.0,255,-99.99,,,1.15,Wunderground v.1.15,2013-01-08 23:23:00,
2013-01-08 18:34:00,-999.9,-99.9,30.38,North,32767,-999.0,0.0,255,-99.99,,,1.15,Wunderground v.1.15,2013-01-08 23:34:00,
2013-01-08 18:39:00,-999.9,-99.9,30.38,North,32767,-999.0,0.0,255,-99.99,,,1.15,Wunderground v.1.15,2013-01-08 23:39:00,
2013-01-08 18:49:00,-999.9,-99.9,30.38,North,32767,-999.0,0.0,255,-99.99,,,1.15,Wunderground v.1.15,2013-01-08 23:49:00,
2013-01-08 18:54:00,-999.9,-99.9,30.38,North,32767,-999.0,0.0,255,-99.99,,,1.15,Wunderground v.1.15,2013-01-08 23:54:00,
2013-01-08 19:04:00,-999.9,-99.9,30.38,North,32767,-999.0,0.0,255,-99.99,,,1.15,Wunderground v.1.15,2013-01-09 00:04:00,
2013-01-08 19:09:00,-999.9,-99.9,30.38,North,32767,-999.0,0.0,255,-99.99,,,1.15,Wunderground v.1.15,2013-01-09 00:09:00,
2013-01-08 19:14:00,-999.9,-99.9,30.39,North,32767,-999.0,0.0,255,-99.99,,,1.15,Wunderground v.1.15,2013-01-09 00:14:00,
2013-01-08 19:24:00,-999.9,-99.9,30.38,North,32767,-999.0,0.0,255,-99.99,,,1.15,Wunderground v.1.15,2013-01-09 00:24:00,
2013-01-08 19:29:00,-999.9,-99.9,30.39,North,32767,-999.0,0.0,255,-99.99,,,1.15,Wunderground v.1.15,2013-01-09 00:29:00,
2013-01-08 19:34:00,-999.9,-99.9,30.38,North,32767,-999.0,0.0,255,-99.99,,,1.15,Wunderground v.1.15,2013-01-09 00:34:00,
2013-01-08 19:39:00,-999.9,-99.9,30.38,North,32767,-999.0,0.0,255,-99.99,,,1.15,Wunderground v.1.15,2013-01-09 00:39:00,
2013-01-08 19:49:00,40.8,-99.9,30.38,NNW,343,0.0,0.0,255,0.00,,,1.15,Wunderground v.1.15,2013-01-09 00:49:00,
2013-01-08 19:54:00,40.8,37.8,30.38,NNW,343,1.0,1.0,89,0.00,,,1.15,Wunderground v.1.15,2013-01-09 00:54:00,
2013-01-08 20:04:00,40.7,37.7,30.38,NNW,344,0.0,1.0,89,0.00,,,1.15,Wunderground v.1.15,2013-01-09 01:04:00,
2013-01-08 20:09:00,40.6,37.6,30.38,NNW,344,0.0,0.0,89,0.00,,,1.15,Wunderground v.1.15,2013-01-09 01:09:00,
2013-01-08 20:19:00,40.5,37.5,30.39,NNW,344,0.0,0.0,89,0.00,,,1.15,Wunderground v.1.15,2013-01-09 01:19:00,
2013-01-08 20:24:00,40.4,37.7,30.39,NNW,344,0.0,0.0,90,0.00,,,1.15,Wunderground v.1.15,2013-01-09 01:24:00,
2013-01-08 20:34:00,40.3,37.6,30.39,NNW,344,0.0,0.0,90,0.00,,,1.15,Wunderground v.1.15,2013-01-09 01:34:00,
2013-01-08 20:44:00,40.2,37.5,30.39,NNW,344,0.0,0.0,90,0.00,,,1.15,Wunderground v.1.15,2013-01-09 01:44:00,
2013-01-08 20:49:00,40.3,37.6,30.39,NNW,344,1.0,1.0,90,0.00,,,1.15,Wunderground v.1.15,2013-01-09 01:49:00,
2013-01-08 20:54:00,40.4,37.7,30.39,NNW,344,1.0,1.0,90,0.00,,,1.15,Wunderground v.1.15,2013-01-09 01:54:00,
2013-01-08 20:59:00,40.4,37.7,30.40,NNW,344,0.0,0.0,90,0.00,,,1.15,Wunderground v.1.15,2013-01-09 01:59:00,
2013-01-08 21:09:00,40.8,37.5,30.40,NNW,346,1.0,1.0,88,0.00,,,1.15,Wunderground v.1.15,2013-01-09 02:09:00,
2013-01-08 21:19:00,41.3,37.4,30.39,North,350,0.0,0.0,86,0.00,,,1.15,Wunderground v.1.15,2013-01-09 02:19:00,
2013-01-08 21:24:00,41.4,37.5,30.40,North,355,1.0,2.0,86,0.00,,,1.15,Wunderground v.1.15,2013-01-09 02:24:00,
2013-01-08 21:29:00,41.2,37.0,30.40,North,355,2.0,2.0,85,0.00,,,1.15,Wunderground v.1.15,2013-01-09 02:29:00,
2013-01-08 21:39:00,40.7,36.2,30.39,North,355,0.0,0.0,84,0.00,,,1.15,Wunderground v.1.15,2013-01-09 02:39:00,
2013-01-08 21:44:00,40.2,35.8,30.39,North,355,0.0,0.0,84,0.00,,,1.15,Wunderground v.1.15,2013-01-09 02:44:00,
2013-01-08 21:49:00,39.9,35.8,30.39,North,355,0.0,0.0,85,0.00,,,1.15,Wunderground v.1.15,2013-01-09 02:49:00,
2013-01-08 21:59:00,39.5,35.1,30.39,North,355,0.0,0.0,84,0.00,,,1.15,Wunderground v.1.15,2013-01-09 02:59:00,
2013-01-08 22:04:00,39.0,34.6,30.39,North,355,0.0,0.0,84,0.00,,,1.15,Wunderground v.1.15,2013-01-09 03:04:00,
2013-01-08 22:09:00,38.4,34.0,30.40,North,355,0.0,0.0,84,0.00,,,1.15,Wunderground v.1.15,2013-01-09 03:09:00,
2013-01-08 22:18:00,37.6,33.8,30.40,North,355,0.0,0.0,86,0.00,,,1.15,Wunderground v.1.15,2013-01-09 03:18:00,
2013-01-08 22:28:00,37.7,34.2,30.40,North,355,0.0,0.0,87,0.00,,,1.15,Wunderground v.1.15,2013-01-09 03:28:00,
2013-01-08 22:33:00,37.3,33.5,30.40,North,355,0.0,0.0,86,0.00,,,1.15,Wunderground v.1.15,2013-01-09 03:33:00,
2013-01-08 22:39:00,36.7,32.9,30.40,North,355,0.0,0.0,86,0.00,,,1.15,Wunderground v.1.15,2013-01-09 03:39:00,
2013-01-08 22:48:00,35.6,31.8,30.40,North,355,0.0,0.0,86,0.00,,,1.15,Wunderground v.1.15,2013-01-09 03:48:00,
2013-01-08 22:53:00,34.9,31.1,30.40,North,355,0.0,0.0,86,0.00,,,1.15,Wunderground v.1.15,2013-01-09 03:53:00,
2013-01-08 22:58:00,34.3,30.5,30.40,North,355,0.0,0.0,86,0.00,,,1.15,Wunderground v.1.15,2013-01-09 03:58:00,
2013-01-08 23:08:00,33.5,30.0,30.40,North,355,0.0,0.0,87,0.00,,,1.15,Wunderground v.1.15,2013-01-09 04:08:00,
2013-01-08 23:13:00,33.2,29.8,30.40,North,355,0.0,0.0,87,0.00,,,1.15,Wunderground v.1.15,2013-01-09 04:13:00,
2013-01-08 23:18:00,32.6,29.4,30.40,North,355,0.0,0.0,88,0.00,,,1.15,Wunderground v.1.15,2013-01-09 04:18:00,
2013-01-08 23:23:00,31.9,28.5,30.40,North,355,0.0,0.0,87,0.00,,,1.15,Wunderground v.1.15,2013-01-09 04:23:00,
2013-01-08 23:34:00,30.9,27.8,30.40,North,355,0.0,0.0,88,0.00,,,1.15,Wunderground v.1.15,2013-01-09 04:34:00,
2013-01-08 23:39:00,30.8,27.9,30.40,North,355,0.0,0.0,89,0.00,,,1.15,Wunderground v.1.15,2013-01-09 04:39:00,
2013-01-08 23:44:00,30.7,28.1,30.40,North,355,0.0,0.0,90,0.00,,,1.15,Wunderground v.1.15,2013-01-09 04:44:00,
2013-01-08 23:54:00,30.2,27.3,30.40,North,355,0.0,0.0,89,0.00,,,1.15,Wunderground v.1.15,2013-01-09 04:54:00,
2013-01-08 23:59:00,29.9,27.3,30.40,North,355,0.0,0.0,90,0.00,,,1.15,Wunderground v.1.15,2013-01-09 04:59:00,